Leon Corners, Illinois
Current Conditions -  °F | °C
As of 2:35 PM on Monday 22 Dec 2014 (Local Time) from KSQI Reporting Station
Overcast Overcast  
Wind Chill: 27°   Ceiling: 600
Heat Index: 36°   Visibility: 4mi
Dew Point: 34°   Wind: 14mph
Humidity: 93%   Direction: 120°ESE
Pressure: 29.62"   Gusts: 22mph
Location:  41.5909°N, 89.9498°W
Report Text: KSQI 222035Z 12012G19KT 4SM OVC006 02/01 A2962 RMK AO1 P0001
Loading
Personal Weather Stations






























Interactive Weather Map New forecast layout! Learn more

10-Day Weather Forecast

Advertisements
Track Severe Weather on mobile